sensor_id;sensor_type;location;lat;lon;timestamp;temperature;humidity
29713;DHT22;16623;53.632;10.016;2023-10-13T00:00:22;12.80;99.90
29713;DHT22;16623;53.632;10.016;2023-10-13T00:02:56;12.90;99.90
29713;DHT22;16623;53.632;10.016;2023-10-13T00:05:29;12.80;99.90
29713;DHT22;16623;53.632;10.016;2023-10-13T00:07:59;12.80;99.90
29713;DHT22;16623;53.632;10.016;2023-10-13T00:10:28;12.80;99.90
29713;DHT22;16623;53.632;10.016;2023-10-13T00:12:55;12.90;99.90
29713;DHT22;16623;53.632;10.016;2023-10-13T00:15:31;12.90;99.90
29713;DHT22;16623;53.632;10.016;2023-10-13T00:18:04;12.80;99.90
29713;DHT22;16623;53.632;10.016;2023-10-13T00:20:41;12.80;99.90
29713;DHT22;16623;53.632;10.016;2023-10-13T00:23:12;12.90;99.90
29713;DHT22;16623;53.632;10.016;2023-10-13T00:25:38;13.00;99.90
29713;DHT22;16623;53.632;10.016;2023-10-13T00:28:18;13.00;99.90
29713;DHT22;16623;53.632;10.016;2023-10-13T00:30:50;13.00;99.90
29713;DHT22;16623;53.632;10.016;2023-10-13T00:33:18;13.00;99.90
29713;DHT22;16623;53.632;10.016;2023-10-13T00:35:49;13.00;99.90
29713;DHT22;16623;53.632;10.016;2023-10-13T00:38:17;13.10;99.90
29713;DHT22;16623;53.632;10.016;2023-10-13T00:40:44;13.00;99.90
29713;DHT22;16623;53.632;10.016;2023-10-13T00:43:20;13.00;99.90
29713;DHT22;16623;53.632;10.016;2023-10-13T00:45:56;13.10;99.90
29713;DHT22;16623;53.632;10.016;2023-10-13T00:48:27;13.10;99.90
29713;DHT22;16623;53.632;10.016;2023-10-13T00:51:01;13.10;99.90
29713;DHT22;16623;53.632;10.016;2023-10-13T00:53:37;13.10;99.90
29713;DHT22;16623;53.632;10.016;2023-10-13T00:56:06;13.10;99.90
29713;DHT22;16623;53.632;10.016;2023-10-13T00:58:36;13.10;99.90
29713;DHT22;16623;53.632;10.016;2023-10-13T01:01:05;13.10;99.90
29713;DHT22;16623;53.632;10.016;2023-10-13T01:03:45;13.20;99.90
29713;DHT22;16623;53.632;10.016;2023-10-13T01:06:11;13.20;99.90
29713;DHT22;16623;53.632;10.016;2023-10-13T01:08:37;13.20;99.90
29713;DHT22;16623;53.632;10.016;2023-10-13T01:11:04;13.20;99.90
29713;DHT22;16623;53.632;10.016;2023-10-13T01:13:33;13.20;99.90
29713;DHT22;16623;53.632;10.016;2023-10-13T01:16:02;13.20;99.90
29713;DHT22;16623;53.632;10.016;2023-10-13T01:18:27;13.20;99.90
29713;DHT22;16623;53.632;10.016;2023-10-13T01:20:54;13.20;99.90
29713;DHT22;16623;53.632;10.016;2023-10-13T01:23:25;13.20;99.90
29713;DHT22;16623;53.632;10.016;2023-10-13T01:25:56;13.20;99.90
29713;DHT22;16623;53.632;10.016;2023-10-13T01:28:22;13.20;99.90
29713;DHT22;16623;53.632;10.016;2023-10-13T01:30:49;13.20;99.90
29713;DHT22;16623;53.632;10.016;2023-10-13T01:33:19;13.20;99.90
29713;DHT22;16623;53.632;10.016;2023-10-13T01:35:52;13.20;99.90
29713;DHT22;16623;53.632;10.016;2023-10-13T01:38:18;13.20;99.90
29713;DHT22;16623;53.632;10.016;2023-10-13T01:40:44;13.30;99.90
29713;DHT22;16623;53.632;10.016;2023-10-13T01:43:09;13.30;99.90
29713;DHT22;16623;53.632;10.016;2023-10-13T01:45:41;13.30;99.90
29713;DHT22;16623;53.632;10.016;2023-10-13T01:48:17;13.30;99.90
29713;DHT22;16623;53.632;10.016;2023-10-13T01:50:46;13.30;99.90
29713;DHT22;16623;53.632;10.016;2023-10-13T01:53:21;13.30;99.90
29713;DHT22;16623;53.632;10.016;2023-10-13T01:55:47;13.40;99.90
29713;DHT22;16623;53.632;10.016;2023-10-13T01:58:15;13.40;99.90
29713;DHT22;16623;53.632;10.016;2023-10-13T02:00:44;13.40;99.90
29713;DHT22;16623;53.632;10.016;2023-10-13T02:03:11;13.50;99.90
29713;DHT22;16623;53.632;10.016;2023-10-13T02:05:48;13.40;99.90
29713;DHT22;16623;53.632;10.016;2023-10-13T02:08:19;13.40;99.90
29713;DHT22;16623;53.632;10.016;2023-10-13T02:10:51;13.50;99.90
29713;DHT22;16623;53.632;10.016;2023-10-13T02:13:17;13.50;99.90
29713;DHT22;16623;53.632;10.016;2023-10-13T02:15:44;13.50;99.90
29713;DHT22;16623;53.632;10.016;2023-10-13T02:18:15;13.50;99.90
29713;DHT22;16623;53.632;10.016;2023-10-13T02:20:47;13.60;99.90
29713;DHT22;16623;53.632;10.016;2023-10-13T02:23:20;13.60;99.90
29713;DHT22;16623;53.632;10.016;2023-10-13T02:25:46;13.50;99.90
29713;DHT22;16623;53.632;10.016;2023-10-13T02:28:11;13.60;99.90
29713;DHT22;16623;53.632;10.016;2023-10-13T02:30:44;13.50;99.90
29713;DHT22;16623;53.632;10.016;2023-10-13T02:33:15;13.60;99.90
29713;DHT22;16623;53.632;10.016;2023-10-13T02:35:50;13.60;99.90
29713;DHT22;16623;53.632;10.016;2023-10-13T02:38:19;13.60;99.90
29713;DHT22;16623;53.632;10.016;2023-10-13T02:40:53;13.60;99.90
29713;DHT22;16623;53.632;10.016;2023-10-13T02:43:21;13.50;99.90
29713;DHT22;16623;53.632;10.016;2023-10-13T02:45:54;13.60;99.90
29713;DHT22;16623;53.632;10.016;2023-10-13T02:48:27;13.60;99.90
29713;DHT22;16623;53.632;10.016;2023-10-13T02:50:59;13.60;99.90
29713;DHT22;16623;53.632;10.016;2023-10-13T02:53:28;13.60;99.90
29713;DHT22;16623;53.632;10.016;2023-10-13T02:55:55;13.60;99.90
29713;DHT22;16623;53.632;10.016;2023-10-13T02:58:22;13.70;99.90
29713;DHT22;16623;53.632;10.016;2023-10-13T03:00:48;13.60;99.90
29713;DHT22;16623;53.632;10.016;2023-10-13T03:03:14;13.70;99.90
29713;DHT22;16623;53.632;10.016;2023-10-13T03:05:44;13.70;99.90
29713;DHT22;16623;53.632;10.016;2023-10-13T03:08:09;13.70;99.90
29713;DHT22;16623;53.632;10.016;2023-10-13T03:10:36;13.70;99.90
29713;DHT22;16623;53.632;10.016;2023-10-13T03:13:05;13.60;99.90
29713;DHT22;16623;53.632;10.016;2023-10-13T03:15:33;13.70;99.90
29713;DHT22;16623;53.632;10.016;2023-10-13T03:18:02;13.80;99.90
29713;DHT22;16623;53.632;10.016;2023-10-13T03:20:28;13.90;99.90
29713;DHT22;16623;53.632;10.016;2023-10-13T03:23:00;13.80;99.90
29713;DHT22;16623;53.632;10.016;2023-10-13T03:25:26;13.90;99.90
29713;DHT22;16623;53.632;10.016;2023-10-13T03:27:56;13.80;99.90
29713;DHT22;16623;53.632;10.016;2023-10-13T03:30:21;13.90;99.90
29713;DHT22;16623;53.632;10.016;2023-10-13T03:32:54;13.90;99.90
29713;DHT22;16623;53.632;10.016;2023-10-13T03:35:21;13.90;99.90
29713;DHT22;16623;53.632;10.016;2023-10-13T03:37:54;13.90;99.90
29713;DHT22;16623;53.632;10.016;2023-10-13T03:40:21;13.90;99.90
29713;DHT22;16623;53.632;10.016;2023-10-13T03:42:47;13.90;99.90
29713;DHT22;16623;53.632;10.016;2023-10-13T03:45:36;13.90;99.90
29713;DHT22;16623;53.632;10.016;2023-10-13T03:48:06;13.90;99.90
29713;DHT22;16623;53.632;10.016;2023-10-13T03:50:41;13.90;99.90
29713;DHT22;16623;53.632;10.016;2023-10-13T03:53:25;13.90;99.90
29713;DHT22;16623;53.632;10.016;2023-10-13T03:55:51;13.90;99.90
29713;DHT22;16623;53.632;10.016;2023-10-13T03:58:33;13.90;99.90
29713;DHT22;16623;53.632;10.016;2023-10-13T04:01:00;13.90;99.90
29713;DHT22;16623;53.632;10.016;2023-10-13T04:03:25;13.90;99.90
29713;DHT22;16623;53.632;10.016;2023-10-13T04:05:59;13.90;99.90
29713;DHT22;16623;53.632;10.016;2023-10-13T04:08:32;14.00;99.90
29713;DHT22;16623;53.632;10.016;2023-10-13T04:11:35;14.00;99.90
29713;DHT22;16623;53.632;10.016;2023-10-13T04:14:17;14.00;99.90
29713;DHT22;16623;53.632;10.016;2023-10-13T04:16:49;14.00;99.90
29713;DHT22;16623;53.632;10.016;2023-10-13T04:19:20;14.00;99.90
29713;DHT22;16623;53.632;10.016;2023-10-13T04:21:49;14.00;99.90
29713;DHT22;16623;53.632;10.016;2023-10-13T04:24:23;14.10;99.90
29713;DHT22;16623;53.632;10.016;2023-10-13T04:27:03;14.10;99.90
29713;DHT22;16623;53.632;10.016;2023-10-13T04:29:41;14.10;99.90
29713;DHT22;16623;53.632;10.016;2023-10-13T04:32:22;14.20;99.90
29713;DHT22;16623;53.632;10.016;2023-10-13T04:34:57;14.10;99.90
29713;DHT22;16623;53.632;10.016;2023-10-13T04:37:35;14.30;99.90
29713;DHT22;16623;53.632;10.016;2023-10-13T04:40:17;14.20;99.90
29713;DHT22;16623;53.632;10.016;2023-10-13T04:42:44;14.20;99.90
29713;DHT22;16623;53.632;10.016;2023-10-13T04:45:22;14.30;99.90
29713;DHT22;16623;53.632;10.016;2023-10-13T04:47:59;14.20;99.90
29713;DHT22;16623;53.632;10.016;2023-10-13T04:50:45;14.30;99.90
29713;DHT22;16623;53.632;10.016;2023-10-13T04:53:15;14.30;99.90
29713;DHT22;16623;53.632;10.016;2023-10-13T04:55:59;14.40;99.90
29713;DHT22;16623;53.632;10.016;2023-10-13T04:58:28;14.40;99.90
29713;DHT22;16623;53.632;10.016;2023-10-13T05:01:32;14.40;99.90
29713;DHT22;16623;53.632;10.016;2023-10-13T05:04:16;14.40;99.90
29713;DHT22;16623;53.632;10.016;2023-10-13T05:06:55;14.50;99.90
29713;DHT22;16623;53.632;10.016;2023-10-13T05:09:40;14.50;99.90
29713;DHT22;16623;53.632;10.016;2023-10-13T05:12:24;14.50;99.90
29713;DHT22;16623;53.632;10.016;2023-10-13T05:15:08;14.60;99.90
29713;DHT22;16623;53.632;10.016;2023-10-13T05:17:52;14.60;99.90
29713;DHT22;16623;53.632;10.016;2023-10-13T05:20:36;14.60;99.90
29713;DHT22;16623;53.632;10.016;2023-10-13T05:23:20;14.70;99.90
29713;DHT22;16623;53.632;10.016;2023-10-13T05:26:04;14.80;99.90
29713;DHT22;16623;53.632;10.016;2023-10-13T05:28:48;14.80;99.90
29713;DHT22;16623;53.632;10.016;2023-10-13T05:31:32;14.80;99.90
29713;DHT22;16623;53.632;10.016;2023-10-13T05:34:16;14.80;99.90
29713;DHT22;16623;53.632;10.016;2023-10-13T05:37:01;14.90;99.90
29713;DHT22;16623;53.632;10.016;2023-10-13T05:39:45;15.00;99.90
29713;DHT22;16623;53.632;10.016;2023-10-13T05:42:29;15.10;99.90
29713;DHT22;16623;53.632;10.016;2023-10-13T05:45:14;15.10;99.90
29713;DHT22;16623;53.632;10.016;2023-10-13T05:47:50;15.10;99.90
29713;DHT22;16623;53.632;10.016;2023-10-13T05:50:27;15.10;99.90
29713;DHT22;16623;53.632;10.016;2023-10-13T05:52:52;15.20;99.90
29713;DHT22;16623;53.632;10.016;2023-10-13T05:55:30;15.20;99.90
29713;DHT22;16623;53.632;10.016;2023-10-13T05:58:15;15.30;99.90
29713;DHT22;16623;53.632;10.016;2023-10-13T06:01:00;15.40;99.90
29713;DHT22;16623;53.632;10.016;2023-10-13T06:03:44;15.50;99.90
29713;DHT22;16623;53.632;10.016;2023-10-13T06:06:28;15.60;99.90
29713;DHT22;16623;53.632;10.016;2023-10-13T06:09:12;15.60;99.90
29713;DHT22;16623;53.632;10.016;2023-10-13T06:11:56;15.70;99.90
29713;DHT22;16623;53.632;10.016;2023-10-13T06:14:40;15.70;99.90
29713;DHT22;16623;53.632;10.016;2023-10-13T06:17:24;15.80;99.90
29713;DHT22;16623;53.632;10.016;2023-10-13T06:20:09;15.90;99.90
29713;DHT22;16623;53.632;10.016;2023-10-13T06:22:53;15.90;99.90
29713;DHT22;16623;53.632;10.016;2023-10-13T06:25:38;15.90;99.90
29713;DHT22;16623;53.632;10.016;2023-10-13T06:28:22;16.00;99.90
29713;DHT22;16623;53.632;10.016;2023-10-13T06:31:07;16.00;99.90
29713;DHT22;16623;53.632;10.016;2023-10-13T06:33:35;16.00;99.90
29713;DHT22;16623;53.632;10.016;2023-10-13T06:36:02;16.00;99.90
29713;DHT22;16623;53.632;10.016;2023-10-13T06:38:29;16.00;99.90
29713;DHT22;16623;53.632;10.016;2023-10-13T06:41:07;16.10;99.90
29713;DHT22;16623;53.632;10.016;2023-10-13T06:43:34;16.10;99.90
29713;DHT22;16623;53.632;10.016;2023-10-13T06:46:09;16.10;99.90
29713;DHT22;16623;53.632;10.016;2023-10-13T06:48:46;16.10;99.90
29713;DHT22;16623;53.632;10.016;2023-10-13T06:51:11;16.10;99.90
29713;DHT22;16623;53.632;10.016;2023-10-13T06:53:45;16.10;99.90
29713;DHT22;16623;53.632;10.016;2023-10-13T06:56:14;16.10;99.90
29713;DHT22;16623;53.632;10.016;2023-10-13T06:58:44;16.20;99.90
29713;DHT22;16623;53.632;10.016;2023-10-13T07:01:12;16.20;99.90
29713;DHT22;16623;53.632;10.016;2023-10-13T07:03:43;16.20;99.90
29713;DHT22;16623;53.632;10.016;2023-10-13T07:06:09;16.20;99.90
29713;DHT22;16623;53.632;10.016;2023-10-13T07:08:43;16.30;99.90
29713;DHT22;16623;53.632;10.016;2023-10-13T07:11:26;16.30;99.90
29713;DHT22;16623;53.632;10.016;2023-10-13T07:14:04;16.20;99.90
29713;DHT22;16623;53.632;10.016;2023-10-13T07:16:43;16.20;99.90
29713;DHT22;16623;53.632;10.016;2023-10-13T07:19:13;16.20;99.90
29713;DHT22;16623;53.632;10.016;2023-10-13T07:21:46;16.20;99.90
29713;DHT22;16623;53.632;10.016;2023-10-13T07:24:15;16.40;99.90
29713;DHT22;16623;53.632;10.016;2023-10-13T07:26:41;16.30;99.90
29713;DHT22;16623;53.632;10.016;2023-10-13T07:31:40;16.30;99.90
29713;DHT22;16623;53.632;10.016;2023-10-13T07:34:10;16.30;99.90
29713;DHT22;16623;53.632;10.016;2023-10-13T07:36:46;16.40;99.90
29713;DHT22;16623;53.632;10.016;2023-10-13T07:39:11;16.40;99.90
29713;DHT22;16623;53.632;10.016;2023-10-13T07:41:52;16.30;99.90
29713;DHT22;16623;53.632;10.016;2023-10-13T07:44:39;16.40;99.90
29713;DHT22;16623;53.632;10.016;2023-10-13T07:47:11;16.30;99.90
29713;DHT22;16623;53.632;10.016;2023-10-13T07:49:37;16.40;99.90
29713;DHT22;16623;53.632;10.016;2023-10-13T07:52:07;16.30;99.90
29713;DHT22;16623;53.632;10.016;2023-10-13T07:54:46;16.30;99.90
29713;DHT22;16623;53.632;10.016;2023-10-13T07:57:15;16.30;99.90
29713;DHT22;16623;53.632;10.016;2023-10-13T07:59:44;16.30;99.90
29713;DHT22;16623;53.632;10.016;2023-10-13T08:02:31;16.30;99.90
29713;DHT22;16623;53.632;10.016;2023-10-13T08:05:17;16.30;99.90
29713;DHT22;16623;53.632;10.016;2023-10-13T08:08:05;16.40;99.90
29713;DHT22;16623;53.632;10.016;2023-10-13T08:10:41;16.40;99.90
29713;DHT22;16623;53.632;10.016;2023-10-13T08:13:11;16.40;99.90
29713;DHT22;16623;53.632;10.016;2023-10-13T08:15:41;16.20;99.90
29713;DHT22;16623;53.632;10.016;2023-10-13T08:18:14;16.40;99.90
29713;DHT22;16623;53.632;10.016;2023-10-13T08:21:02;16.40;99.90
29713;DHT22;16623;53.632;10.016;2023-10-13T08:23:32;16.30;99.90
29713;DHT22;16623;53.632;10.016;2023-10-13T08:26:33;16.30;99.90
29713;DHT22;16623;53.632;10.016;2023-10-13T08:29:05;16.30;99.90
29713;DHT22;16623;53.632;10.016;2023-10-13T08:31:50;16.30;99.90
29713;DHT22;16623;53.632;10.016;2023-10-13T08:34:35;16.30;99.90
29713;DHT22;16623;53.632;10.016;2023-10-13T08:37:05;16.30;99.90
29713;DHT22;16623;53.632;10.016;2023-10-13T08:39:57;16.30;99.90
29713;DHT22;16623;53.632;10.016;2023-10-13T08:42:36;16.30;99.90
29713;DHT22;16623;53.632;10.016;2023-10-13T08:45:23;16.30;99.90
29713;DHT22;16623;53.632;10.016;2023-10-13T08:47:49;16.30;99.90
29713;DHT22;16623;53.632;10.016;2023-10-13T08:50:34;16.30;99.90
29713;DHT22;16623;53.632;10.016;2023-10-13T08:53:16;16.30;99.90
29713;DHT22;16623;53.632;10.016;2023-10-13T08:56:05;16.30;99.90
29713;DHT22;16623;53.632;10.016;2023-10-13T08:58:32;16.30;99.90
29713;DHT22;16623;53.632;10.016;2023-10-13T09:01:17;16.30;99.90
29713;DHT22;16623;53.632;10.016;2023-10-13T09:04:03;16.30;99.90
29713;DHT22;16623;53.632;10.016;2023-10-13T09:09:33;16.30;99.90
29713;DHT22;16623;53.632;10.016;2023-10-13T09:12:25;16.30;99.90
29713;DHT22;16623;53.632;10.016;2023-10-13T09:15:04;16.30;99.90
29713;DHT22;16623;53.632;10.016;2023-10-13T09:17:31;16.30;99.90
29713;DHT22;16623;53.632;10.016;2023-10-13T09:22:46;16.50;99.90
29713;DHT22;16623;53.632;10.016;2023-10-13T09:25:37;16.50;99.90
29713;DHT22;16623;53.632;10.016;2023-10-13T09:28:11;16.60;99.90
29713;DHT22;16623;53.632;10.016;2023-10-13T09:30:54;16.60;99.90
29713;DHT22;16623;53.632;10.016;2023-10-13T09:33:29;16.60;99.90
29713;DHT22;16623;53.632;10.016;2023-10-13T09:35:58;16.70;99.90
29713;DHT22;16623;53.632;10.016;2023-10-13T09:38:26;16.70;99.90
29713;DHT22;16623;53.632;10.016;2023-10-13T09:40:53;16.80;99.90
29713;DHT22;16623;53.632;10.016;2023-10-13T09:43:26;16.80;99.90
29713;DHT22;16623;53.632;10.016;2023-10-13T09:45:59;16.90;99.90
29713;DHT22;16623;53.632;10.016;2023-10-13T09:48:36;16.90;99.90
29713;DHT22;16623;53.632;10.016;2023-10-13T09:51:02;16.90;99.90
29713;DHT22;16623;53.632;10.016;2023-10-13T09:53:34;16.90;99.90
29713;DHT22;16623;53.632;10.016;2023-10-13T09:56:14;17.00;99.90
29713;DHT22;16623;53.632;10.016;2023-10-13T10:01:22;17.00;99.90
29713;DHT22;16623;53.632;10.016;2023-10-13T10:04:07;16.90;99.90
29713;DHT22;16623;53.632;10.016;2023-10-13T10:06:37;17.00;99.90
29713;DHT22;16623;53.632;10.016;2023-10-13T10:09:10;16.90;99.90
29713;DHT22;16623;53.632;10.016;2023-10-13T10:14:41;16.90;99.90
29713;DHT22;16623;53.632;10.016;2023-10-13T10:17:14;17.00;99.90
29713;DHT22;16623;53.632;10.016;2023-10-13T10:19:51;17.00;99.90
29713;DHT22;16623;53.632;10.016;2023-10-13T10:22:31;17.00;99.90
29713;DHT22;16623;53.632;10.016;2023-10-13T10:25:03;17.00;99.90
29713;DHT22;16623;53.632;10.016;2023-10-13T10:27:33;16.90;99.90
29713;DHT22;16623;53.632;10.016;2023-10-13T10:30:00;16.90;99.90
29713;DHT22;16623;53.632;10.016;2023-10-13T10:35:08;17.00;99.90
29713;DHT22;16623;53.632;10.016;2023-10-13T10:37:36;17.00;99.90
29713;DHT22;16623;53.632;10.016;2023-10-13T10:40:07;17.00;99.90
29713;DHT22;16623;53.632;10.016;2023-10-13T10:42:33;17.10;99.90
29713;DHT22;16623;53.632;10.016;2023-10-13T10:44:59;17.20;99.90
29713;DHT22;16623;53.632;10.016;2023-10-13T10:47:31;17.20;99.90
29713;DHT22;16623;53.632;10.016;2023-10-13T10:50:01;17.20;99.90
29713;DHT22;16623;53.632;10.016;2023-10-13T10:52:33;17.30;99.90
29713;DHT22;16623;53.632;10.016;2023-10-13T10:55:03;17.40;99.90
29713;DHT22;16623;53.632;10.016;2023-10-13T10:57:33;17.40;99.90
29713;DHT22;16623;53.632;10.016;2023-10-13T11:00:04;17.40;99.90
29713;DHT22;16623;53.632;10.016;2023-10-13T11:02:40;17.50;99.90
29713;DHT22;16623;53.632;10.016;2023-10-13T11:05:07;17.50;99.90
29713;DHT22;16623;53.632;10.016;2023-10-13T11:07:35;17.60;99.90
29713;DHT22;16623;53.632;10.016;2023-10-13T11:10:09;17.60;99.90
29713;DHT22;16623;53.632;10.016;2023-10-13T11:12:58;17.70;99.90
29713;DHT22;16623;53.632;10.016;2023-10-13T11:15:47;17.70;99.90
29713;DHT22;16623;53.632;10.016;2023-10-13T11:18:14;17.80;99.90
29713;DHT22;16623;53.632;10.016;2023-10-13T11:20:49;17.90;99.90
29713;DHT22;16623;53.632;10.016;2023-10-13T11:23:19;18.00;99.90
29713;DHT22;16623;53.632;10.016;2023-10-13T11:25:59;18.00;99.90
29713;DHT22;16623;53.632;10.016;2023-10-13T11:28:25;18.10;99.90
29713;DHT22;16623;53.632;10.016;2023-10-13T11:30:57;18.10;99.90
29713;DHT22;16623;53.632;10.016;2023-10-13T11:33:26;18.20;99.90
29713;DHT22;16623;53.632;10.016;2023-10-13T11:35:55;18.40;99.90
29713;DHT22;16623;53.632;10.016;2023-10-13T11:38:25;18.40;99.90
29713;DHT22;16623;53.632;10.016;2023-10-13T11:40:58;18.40;99.90
29713;DHT22;16623;53.632;10.016;2023-10-13T11:43:41;18.60;99.90
29713;DHT22;16623;53.632;10.016;2023-10-13T11:46:17;18.50;99.90
29713;DHT22;16623;53.632;10.016;2023-10-13T11:49:07;18.60;99.90
29713;DHT22;16623;53.632;10.016;2023-10-13T11:51:40;18.70;99.90
29713;DHT22;16623;53.632;10.016;2023-10-13T11:54:20;18.80;99.90
29713;DHT22;16623;53.632;10.016;2023-10-13T11:56:48;19.00;99.90
29713;DHT22;16623;53.632;10.016;2023-10-13T11:59:14;18.90;99.90
29713;DHT22;16623;53.632;10.016;2023-10-13T12:01:49;19.10;99.90
29713;DHT22;16623;53.632;10.016;2023-10-13T12:04:34;19.10;99.90
29713;DHT22;16623;53.632;10.016;2023-10-13T12:07:14;19.20;99.90
29713;DHT22;16623;53.632;10.016;2023-10-13T12:09:43;19.30;99.90
29713;DHT22;16623;53.632;10.016;2023-10-13T12:12:22;19.40;99.90
29713;DHT22;16623;53.632;10.016;2023-10-13T12:14:48;19.50;99.90
29713;DHT22;16623;53.632;10.016;2023-10-13T12:17:30;19.60;99.90
29713;DHT22;16623;53.632;10.016;2023-10-13T12:20:05;19.60;99.90
29713;DHT22;16623;53.632;10.016;2023-10-13T12:22:35;19.70;99.90
29713;DHT22;16623;53.632;10.016;2023-10-13T12:25:07;19.70;99.90
29713;DHT22;16623;53.632;10.016;2023-10-13T12:27:52;19.80;99.90
29713;DHT22;16623;53.632;10.016;2023-10-13T12:30:22;19.80;99.90
29713;DHT22;16623;53.632;10.016;2023-10-13T12:33:01;19.80;99.90
29713;DHT22;16623;53.632;10.016;2023-10-13T12:35:34;19.80;99.90
29713;DHT22;16623;53.632;10.016;2023-10-13T12:38:01;19.90;99.90
29713;DHT22;16623;53.632;10.016;2023-10-13T12:40:52;20.00;99.90
29713;DHT22;16623;53.632;10.016;2023-10-13T12:43:36;20.00;99.90
29713;DHT22;16623;53.632;10.016;2023-10-13T12:46:20;20.10;99.90
29713;DHT22;16623;53.632;10.016;2023-10-13T12:49:04;20.10;99.90
29713;DHT22;16623;53.632;10.016;2023-10-13T12:51:41;20.20;99.90
29713;DHT22;16623;53.632;10.016;2023-10-13T12:54:16;20.20;99.90
29713;DHT22;16623;53.632;10.016;2023-10-13T12:56:46;20.30;99.90
29713;DHT22;16623;53.632;10.016;2023-10-13T12:59:11;20.30;99.90
29713;DHT22;16623;53.632;10.016;2023-10-13T13:01:41;20.40;99.90
29713;DHT22;16623;53.632;10.016;2023-10-13T13:04:10;20.40;99.90
29713;DHT22;16623;53.632;10.016;2023-10-13T13:06:57;20.40;99.90
29713;DHT22;16623;53.632;10.016;2023-10-13T13:09:22;20.50;99.90
29713;DHT22;16623;53.632;10.016;2023-10-13T13:11:54;20.40;99.90
29713;DHT22;16623;53.632;10.016;2023-10-13T13:14:26;20.50;99.90
29713;DHT22;16623;53.632;10.016;2023-10-13T13:16:57;20.50;99.90
29713;DHT22;16623;53.632;10.016;2023-10-13T13:19:36;20.40;99.90
29713;DHT22;16623;53.632;10.016;2023-10-13T13:22:07;20.50;99.90
29713;DHT22;16623;53.632;10.016;2023-10-13T13:24:42;20.40;99.90
29713;DHT22;16623;53.632;10.016;2023-10-13T13:27:11;20.40;99.90
29713;DHT22;16623;53.632;10.016;2023-10-13T13:29:43;20.30;99.90
29713;DHT22;16623;53.632;10.016;2023-10-13T13:32:09;20.30;99.90
29713;DHT22;16623;53.632;10.016;2023-10-13T13:34:47;20.20;99.90
29713;DHT22;16623;53.632;10.016;2023-10-13T13:37:20;20.30;99.90
29713;DHT22;16623;53.632;10.016;2023-10-13T13:39:45;20.50;99.90
29713;DHT22;16623;53.632;10.016;2023-10-13T13:42:11;20.40;99.90
29713;DHT22;16623;53.632;10.016;2023-10-13T13:44:46;20.50;99.90
29713;DHT22;16623;53.632;10.016;2023-10-13T13:47:14;20.50;99.90
29713;DHT22;16623;53.632;10.016;2023-10-13T13:49:43;20.60;99.90
29713;DHT22;16623;53.632;10.016;2023-10-13T13:52:16;20.60;99.90
29713;DHT22;16623;53.632;10.016;2023-10-13T13:54:43;20.60;99.90
29713;DHT22;16623;53.632;10.016;2023-10-13T13:59:35;20.50;99.90
29713;DHT22;16623;53.632;10.016;2023-10-13T14:02:02;20.50;99.90
29713;DHT22;16623;53.632;10.016;2023-10-13T14:04:46;20.50;99.90
29713;DHT22;16623;53.632;10.016;2023-10-13T14:07:13;20.50;99.90
29713;DHT22;16623;53.632;10.016;2023-10-13T14:09:40;20.50;99.90
29713;DHT22;16623;53.632;10.016;2023-10-13T14:12:09;20.50;99.90
29713;DHT22;16623;53.632;10.016;2023-10-13T14:14:53;20.50;99.90
29713;DHT22;16623;53.632;10.016;2023-10-13T14:17:22;20.50;99.90
29713;DHT22;16623;53.632;10.016;2023-10-13T14:19:57;20.40;99.90
29713;DHT22;16623;53.632;10.016;2023-10-13T14:22:26;20.40;99.90
29713;DHT22;16623;53.632;10.016;2023-10-13T14:24:52;20.30;99.90
29713;DHT22;16623;53.632;10.016;2023-10-13T14:27:21;20.30;99.90
29713;DHT22;16623;53.632;10.016;2023-10-13T14:29:49;20.30;99.90
29713;DHT22;16623;53.632;10.016;2023-10-13T14:32:19;20.30;99.90
29713;DHT22;16623;53.632;10.016;2023-10-13T14:34:46;20.40;99.90
29713;DHT22;16623;53.632;10.016;2023-10-13T14:37:20;20.30;99.90
29713;DHT22;16623;53.632;10.016;2023-10-13T14:39:57;20.30;99.90
29713;DHT22;16623;53.632;10.016;2023-10-13T14:42:27;20.30;99.90
29713;DHT22;16623;53.632;10.016;2023-10-13T14:44:53;20.30;99.90
29713;DHT22;16623;53.632;10.016;2023-10-13T14:47:24;20.40;99.90
29713;DHT22;16623;53.632;10.016;2023-10-13T14:49:54;20.30;99.90
29713;DHT22;16623;53.632;10.016;2023-10-13T14:52:22;20.30;99.90
29713;DHT22;16623;53.632;10.016;2023-10-13T14:54:47;20.30;99.90
29713;DHT22;16623;53.632;10.016;2023-10-13T14:57:16;20.20;99.90
29713;DHT22;16623;53.632;10.016;2023-10-13T14:59:42;20.20;99.90
29713;DHT22;16623;53.632;10.016;2023-10-13T15:02:09;20.20;99.90
29713;DHT22;16623;53.632;10.016;2023-10-13T15:04:35;20.20;99.90
29713;DHT22;16623;53.632;10.016;2023-10-13T15:07:01;20.30;99.90
29713;DHT22;16623;53.632;10.016;2023-10-13T15:09:28;20.30;99.90
29713;DHT22;16623;53.632;10.016;2023-10-13T15:11:53;20.30;99.90
29713;DHT22;16623;53.632;10.016;2023-10-13T15:14:19;20.30;99.90
29713;DHT22;16623;53.632;10.016;2023-10-13T15:16:46;20.40;99.90
29713;DHT22;16623;53.632;10.016;2023-10-13T15:19:12;20.40;99.90
29713;DHT22;16623;53.632;10.016;2023-10-13T15:21:38;20.40;99.90
29713;DHT22;16623;53.632;10.016;2023-10-13T15:24:06;20.50;99.90
29713;DHT22;16623;53.632;10.016;2023-10-13T15:26:42;20.50;99.90
29713;DHT22;16623;53.632;10.016;2023-10-13T15:29:16;20.60;99.90
29713;DHT22;16623;53.632;10.016;2023-10-13T15:31:43;20.60;99.90
29713;DHT22;16623;53.632;10.016;2023-10-13T15:34:29;20.60;99.90
29713;DHT22;16623;53.632;10.016;2023-10-13T15:36:56;20.60;99.90
29713;DHT22;16623;53.632;10.016;2023-10-13T15:39:23;20.60;99.90
29713;DHT22;16623;53.632;10.016;2023-10-13T15:41:51;20.70;99.90
29713;DHT22;16623;53.632;10.016;2023-10-13T15:44:20;20.70;99.90
29713;DHT22;16623;53.632;10.016;2023-10-13T15:46:47;20.60;99.90
29713;DHT22;16623;53.632;10.016;2023-10-13T15:49:15;20.60;99.90
29713;DHT22;16623;53.632;10.016;2023-10-13T15:51:41;20.60;99.90
29713;DHT22;16623;53.632;10.016;2023-10-13T15:54:07;20.60;99.90
29713;DHT22;16623;53.632;10.016;2023-10-13T15:56:43;20.60;99.90
29713;DHT22;16623;53.632;10.016;2023-10-13T15:59:11;20.60;99.90
29713;DHT22;16623;53.632;10.016;2023-10-13T16:01:37;20.70;99.90
29713;DHT22;16623;53.632;10.016;2023-10-13T16:04:07;20.70;99.90
29713;DHT22;16623;53.632;10.016;2023-10-13T16:09:05;20.70;99.90
29713;DHT22;16623;53.632;10.016;2023-10-13T16:11:41;20.70;99.90
29713;DHT22;16623;53.632;10.016;2023-10-13T16:14:08;20.70;99.90